Latest Weather Observations for Bendigo

IDV60801

Issued at 7:02 pm EDT Tuesday 6 December 2016 (issued every 30 minutes, with the page automatically refreshed every 10 minutes)

About weather observations | Map of weather stations | Latest weather observations for VIC | Other Formats
Station Details ID: 081123 Name: BENDIGO AIRPORT Lat: -36.74 Lon: 144.33 Height: 208.0 m
Data from the previous 72 hours. | See also: Recent months at Bendigo
Date/Time
EDT
Temp
°C
App
Temp
°C
Dew
Point
°C
Rel
Hum
%
Delta-T
°C
Wind Press
QNH
hPa
Press
MSL
hPa
Rain since
9am
mm
Dir  Spd
km/h
Gust
km/h
Spd
kts
Gust
kts
06/07:00pm 22.8 18.1 3.4 28 9.5 WSW 17 26 9 14 1012.3 1011.6 -
06/06:30pm 23.2 18.7 4.2 29 9.4 S 17 24 9 13 1011.7 1011.1 0.0
06/06:00pm 23.4 18.9 4.4 29 9.5 SW 17 28 9 15 1011.7 1011.1 0.0
06/05:30pm 24.3 20.4 3.6 26 10.2 SW 13 28 7 15 1012.0 1011.3 0.0
06/05:00pm 24.1 19.7 4.5 28 9.8 WSW 17 24 9 13 1012.2 1011.5 0.0
06/04:30pm 23.3 18.8 4.3 29 9.5 SW 17 32 9 17 1012.2 1011.5 0.0
06/04:00pm 24.5 20.8 4.3 27 10.1 SW 13 20 7 11 1012.0 1011.3 0.0
06/03:30pm 23.9 18.6 3.2 26 10.1 WSW 20 30 11 16 1012.3 1011.6 0.0
06/03:00pm 23.8 20.1 4.2 28 9.8 SW 13 20 7 11 1012.3 1011.6 0.0
06/02:30pm 23.1 20.0 3.6 28 9.6 WSW 9 15 5 8 1012.6 1011.9 0.0
06/02:00pm 21.9 17.5 4.5 32 8.6 WSW 17 32 9 17 1012.7 1012.0 0.0
06/01:30pm 21.5 17.6 7.3 40 7.4 WNW 17 28 9 15 1012.9 1012.2 0.0
06/01:00pm 21.1 17.3 7.7 42 7.0 W 17 30 9 16 1013.3 1012.7 0.0
06/12:30pm 19.9 16.8 8.9 49 5.8 W 15 26 8 14 1013.6 1013.0 0.0
06/12:00pm 19.3 17.9 8.9 51 5.5 WNW 6 15 3 8 1013.7 1013.1 0.0
06/11:30am 17.9 16.6 9.8 59 4.3 WNW 7 13 4 7 1014.0 1013.4 0.0
06/11:00am 16.6 15.5 10.5 67 3.3 NNE 7 11 4 6 1013.9 1013.3 0.0
06/10:30am 16.2 16.2 9.8 66 3.4 CALM 0 6 0 3 1014.0 1013.4 0.0
06/10:00am 15.7 15.7 9.8 68 3.1 CALM 0 0 0 0 1013.8 1013.2 0.0
06/09:30am 15.1 14.7 9.7 70 2.8 S 2 7 1 4 1014.0 1013.4 0.0
06/09:00am 14.5 13.7 9.5 72 2.6 SSE 4 7 2 4 1013.7 1013.1 0.0
06/08:30am 14.1 12.7 9.7 75 2.3 S 7 11 4 6 1013.8 1013.2 0.0
06/08:00am 13.6 11.5 9.6 77 2.1 S 11 15 6 8 1012.8 1012.1 0.0
06/07:30am 13.0 11.2 9.4 79 1.8 S 9 15 5 8 1012.8 1012.1 0.0
06/07:00am 12.7 10.1 9.5 81 1.6 SSE 13 17 7 9 1012.4 1011.7 0.0
06/06:30am 12.6 10.0 9.4 81 1.6 SSE 13 19 7 10 1012.1 1011.4 0.0
06/06:00am 12.5 9.5 9.3 81 1.6 SSE 15 19 8 10 1012.0 1011.3 0.0
06/05:30am 12.5 9.9 9.3 81 1.6 SSE 13 19 7 10 1011.0 1010.4 0.0
06/05:00am 12.3 11.0 9.3 82 1.5 SSE 6 9 3 5 1010.7 1010.1 0.0
06/04:30am 12.8 11.4 9.6 81 1.6 SSW 7 9 4 5 1011.0 1010.4 0.0
06/04:00am 13.1 11.7 9.5 79 1.9 SSW 7 11 4 6 1011.1 1010.5 0.0
06/03:30am 13.1 10.5 9.5 79 1.9 SSE 13 19 7 10 1010.4 1009.8 0.0
06/03:00am 13.4 10.9 9.6 78 2.0 SSE 13 17 7 9 1010.3 1009.7 0.0
06/02:30am 13.4 11.6 9.6 78 2.0 SSE 9 15 5 8 1010.7 1010.1 0.0
06/02:00am 13.6 11.5 9.6 77 2.1 S 11 17 6 9 1011.0 1010.4 0.0
06/01:30am 13.7 11.6 9.7 77 2.1 S 11 19 6 10 1011.3 1010.7 0.0
06/01:00am 13.8 10.9 9.6 76 2.2 SSE 15 19 8 10 1011.0 1010.4 0.0
06/12:30am 14.3 11.9 9.9 75 2.3 SSE 13 19 7 10 1011.7 1011.1 0.0
06/12:00am 14.7 11.9 9.9 73 2.5 SSE 15 22 8 12 1011.7 1011.1 0.0
 
Date/Time
EDT
Temp
°C
App
Temp
°C
Dew
Point
°C
Rel
Hum
%
Delta-T
°C
Wind Press
QNH
hPa
Press
MSL
hPa
Rain since
9am
mm
Dir  Spd
km/h
Gust
km/h
Spd
kts
Gust
kts
05/11:30pm 15.2 11.5 9.6 69 2.9 SSE 19 28 10 15 1011.7 1011.1 0.0
05/11:00pm 15.9 12.0 9.6 66 3.3 SE 20 26 11 14 1012.1 1011.4 0.0
05/10:30pm 16.5 13.1 9.2 62 3.8 SSE 17 22 9 12 1012.3 1011.6 0.0
05/10:00pm 17.5 13.5 9.2 58 4.4 SSE 20 26 11 14 1012.3 1011.6 0.0
05/09:30pm 18.6 14.7 9.4 55 4.9 S 20 28 11 15 1013.2 1012.6 0.0
05/09:00pm 19.5 16.3 10.0 54 5.1 SE 17 28 9 15 1012.4 1011.7 0.0
05/08:30pm 20.3 16.8 10.1 52 5.5 SE 19 28 10 15 1010.8 1010.2 0.0
05/08:00pm 21.5 18.9 7.7 41 7.2 S 11 17 6 9 1011.0 1010.4 0.0
05/07:30pm 22.0 18.4 6.7 37 7.9 SW 15 22 8 12 1010.9 1010.3 0.0
05/07:00pm 22.9 18.8 6.2 34 8.6 SW 17 22 9 12 1010.7 1010.1 0.0
05/06:30pm 23.5 19.6 5.4 31 9.2 SW 15 22 8 12 1010.4 1009.8 0.0
05/06:00pm 23.9 19.9 4.8 29 9.6 SSW 15 20 8 11 1009.8 1009.2 0.0
05/05:30pm 24.0 20.5 5.4 30 9.5 SW 13 17 7 9 1010.1 1009.5 0.0
05/05:00pm 25.2 21.2 4.9 27 10.4 SSW 15 28 8 15 1010.1 1009.5 0.0
05/04:30pm 24.8 20.9 3.5 25 10.5 SSW 13 19 7 10 1010.0 1009.4 0.0
05/04:00pm 24.6 20.6 2.7 24 10.7 WSW 13 22 7 12 1010.7 1010.1 0.0
05/03:30pm 24.0 21.3 5.4 30 9.5 SSW 9 15 5 8 1010.2 1009.6 0.0
05/03:00pm 24.1 21.6 8.1 36 8.6 SW 11 17 6 9 1010.3 1009.7 0.0
05/02:30pm 23.6 20.9 8.8 39 8.0 SSW 13 20 7 11 1010.4 1009.8 0.0
05/02:00pm 23.6 20.8 9.9 42 7.6 SSW 15 24 8 13 1010.8 1010.2 0.0
05/01:30pm 23.1 20.0 8.8 40 7.7 SW 15 20 8 11 1010.8 1010.2 0.0
05/01:00pm 22.9 19.5 10.7 46 6.8 SW 19 26 10 14 1010.6 1010.0 0.0
05/12:30pm 23.4 21.2 13.3 53 5.9 WSW 17 24 9 13 1010.5 1009.9 0.0
05/12:00pm 23.3 21.9 14.6 58 5.2 SW 15 22 8 12 1010.4 1009.8 0.0
05/11:30am 23.0 20.9 15.1 61 4.7 SW 20 26 11 14 1010.2 1009.6 0.0
05/11:00am 22.0 20.3 15.8 68 3.8 SW 19 26 10 14 1010.2 1009.6 0.0
05/10:30am 22.1 21.9 16.8 72 3.3 SW 13 22 7 12 1010.2 1009.6 0.0
05/10:00am 22.1 22.0 17.0 73 3.2 SW 13 19 7 10 1010.0 1009.4 0.0
05/09:30am 20.4 20.5 16.6 79 2.3 S 11 20 6 11 1010.2 1009.6 0.0
05/09:23am 19.3 18.4 15.8 80 2.1 SSW 15 20 8 11 1010.2 1009.6 0.0
05/09:00am 18.4 16.5 15.3 82 1.8 SSW 19 30 10 16 1010.2 1009.6 3.2
05/08:30am 20.6 19.8 17.2 81 2.1 WSW 17 26 9 14 1009.4 1008.8 3.2
05/08:26am 20.9 20.6 17.3 80 2.2 W 15 24 8 13 1009.3 1008.7 3.2
05/08:00am 20.9 22.3 17.9 83 1.9 NW 7 13 4 7 1008.9 1008.3 3.2
05/07:30am 19.6 21.0 17.4 87 1.4 N 6 9 3 5 1008.4 1007.7 3.2
05/07:00am 18.9 21.5 17.4 91 0.9 CALM 0 0 0 0 1008.3 1007.6 3.2
05/06:30am 17.7 20.0 16.7 94 0.6 CALM 0 0 0 0 1008.0 1007.3 3.2
05/06:00am 17.4 19.5 16.3 93 0.7 CALM 0 0 0 0 1007.9 1007.2 3.2
05/05:30am 18.2 20.1 16.7 91 0.9 W 2 7 1 4 1007.7 1007.0 3.2
05/05:00am 18.5 21.0 17.2 92 0.8 CALM 0 0 0 0 1007.5 1006.8 3.2
05/04:30am 18.8 20.9 17.1 90 1.0 WSW 2 9 1 5 1007.3 1006.6 3.2
05/04:00am 18.9 20.2 17.2 90 1.0 WSW 6 9 3 5 1007.3 1006.6 3.2
05/03:30am 18.7 20.4 17.2 91 0.9 S 4 9 2 5 1006.9 1006.2 3.2
05/03:00am 18.8 21.2 16.9 89 1.2 CALM 0 0 0 0 1006.6 1006.0 3.2
05/02:30am 18.9 21.3 16.9 88 1.2 CALM 0 0 0 0 1006.6 1006.0 3.2
05/02:00am 18.9 20.9 16.9 88 1.2 E 2 9 1 5 1006.6 1006.0 3.2
05/01:30am 18.7 19.9 16.9 89 1.1 NE 6 11 3 6 1006.8 1006.1 3.2
05/01:00am 18.7 21.1 16.9 89 1.1 CALM 0 6 0 3 1007.1 1006.4 3.2
05/12:30am 18.8 19.5 17.1 90 1.0 NE 9 11 5 6 1007.3 1006.6 3.2
05/12:00am 19.1 19.2 17.4 90 1.0 NNE 13 19 7 10 1007.7 1007.0 3.2
 
Date/Time
EDT
Temp
°C
App
Temp
°C
Dew
Point
°C
Rel
Hum
%
Delta-T
°C
Wind Press
QNH
hPa
Press
MSL
hPa
Rain since
9am
mm
Dir  Spd
km/h
Gust
km/h
Spd
kts
Gust
kts
04/11:30pm 19.0 19.8 17.3 90 1.0 NE 9 13 5 7 1007.9 1007.2 3.2
04/11:00pm 18.9 19.4 17.4 91 0.9 NE 11 15 6 8 1007.9 1007.2 3.2
04/10:30pm 18.6 18.3 17.4 93 0.7 ENE 15 19 8 10 1007.8 1007.1 3.2
04/10:00pm 18.7 20.1 17.7 94 0.6 E 7 13 4 7 1007.8 1007.1 3.2
04/09:30pm 18.9 21.2 17.7 93 0.7 NE 2 9 1 5 1008.4 1007.7 3.0
04/09:00pm 19.0 20.6 17.8 93 0.7 ENE 6 11 3 6 1008.5 1007.8 3.0
04/08:30pm 19.5 21.2 18.0 91 0.9 NE 6 11 3 6 1008.8 1008.1 3.0
04/08:00pm 19.5 21.7 17.5 88 1.2 W 2 9 1 5 1008.8 1008.1 3.0
04/07:30pm 19.5 21.0 17.5 88 1.2 SSW 6 9 3 5 1008.8 1008.1 2.8
04/07:00pm 19.7 20.9 17.3 86 1.5 SSW 7 11 4 6 1008.7 1008.0 2.4
04/06:30pm 19.9 19.9 17.3 85 1.6 SW 13 17 7 9 1008.5 1007.8 2.2
04/06:00pm 20.2 20.0 17.6 85 1.6 WSW 15 24 8 13 1009.4 1008.8 2.0
04/05:30pm 20.6 19.5 16.4 77 2.6 WNW 17 22 9 12 1009.9 1009.3 0.8
04/05:00pm 22.3 19.4 15.2 64 4.3 W 24 39 13 21 1009.1 1008.5 0.2
04/04:30pm 24.6 20.4 13.5 50 6.5 WNW 28 46 15 25 1009.4 1008.8 0.0
04/04:00pm 27.1 20.3 12.0 39 8.8 WNW 39 59 21 32 1008.8 1008.1 0.0
04/03:49pm 28.7 22.1 11.3 34 10.1 WNW 37 57 20 31 1008.3 1007.6 0.0
04/03:31pm 30.7 23.0 10.1 28 11.8 NW 41 69 22 37 1007.8 1007.1 0.0
04/03:30pm 30.7 23.4 10.1 28 11.8 NW 39 61 21 33 1007.8 1007.1 0.0
04/03:25pm 31.0 24.0 9.8 27 12.1 NW 37 61 20 33 1007.7 1007.0 0.0
04/03:06pm 31.4 25.5 9.0 25 12.7 N 30 50 16 27 1007.2 1006.5 0.0
04/03:00pm 31.2 25.2 10.0 27 12.2 NNE 32 50 17 27 1006.5 1005.9 0.0
04/02:57pm 31.5 26.2 9.7 26 12.5 N 28 50 15 27 1006.4 1005.8 0.0
04/02:30pm 33.5 28.6 6.7 19 14.7 N 22 35 12 19 1007.3 1006.6 0.0
04/02:00pm 32.9 27.6 7.0 20 14.3 N 24 37 13 20 1007.6 1006.9 0.0
04/01:30pm 32.9 28.4 7.0 20 14.3 N 20 30 11 16 1008.3 1007.6 0.0
04/01:00pm 32.2 27.7 7.1 21 13.8 N 20 30 11 16 1009.0 1008.4 0.0
04/12:30pm 31.7 27.3 6.7 21 13.6 N 19 28 10 15 1009.4 1008.8 0.0
04/12:00pm 30.0 25.4 6.6 23 12.6 N 20 32 11 17 1010.0 1009.4 0.0
04/11:30am 29.3 25.3 6.7 24 12.2 N 17 24 9 13 1010.4 1009.8 0.0
04/11:00am 27.1 23.0 6.0 26 11.1 NNE 17 22 9 12 1010.6 1010.0 0.0
04/10:30am 25.9 22.9 6.0 28 10.4 ENE 11 19 6 10 1010.7 1010.1 0.0
04/10:00am 23.8 21.3 6.6 33 9.0 ENE 9 15 5 8 1010.9 1010.3 0.0
04/09:30am 23.2 19.9 4.7 30 9.3 NE 11 19 6 10 1011.3 1010.7 0.0
04/09:00am 22.2 19.4 5.2 33 8.5 ENE 9 15 5 8 1011.5 1010.9 0.0
04/08:30am 21.1 18.2 4.6 34 8.1 ESE 9 15 5 8 1011.3 1010.7 0.0
04/08:00am 19.8 17.1 3.9 35 7.7 ESE 7 13 4 7 1011.6 1011.0 0.0
04/07:30am 17.5 14.7 5.1 44 6.0 SE 9 13 5 7 1011.4 1010.8 0.0
04/07:00am 16.0 12.3 4.7 47 5.4 SE 13 17 7 9 1011.2 1010.6 0.0
04/06:30am 16.7 13.6 3.7 42 6.1 SE 9 13 5 7 1010.9 1010.3 0.0
04/06:00am 15.5 12.2 4.3 47 5.3 SSE 11 13 6 7 1010.8 1010.2 0.0
04/05:30am 14.5 11.6 4.5 51 4.7 SE 9 13 5 7 1011.0 1010.4 0.0
04/05:00am 14.4 11.5 4.7 52 4.6 SSE 9 11 5 6 1010.9 1010.3 0.0
04/04:30am 15.0 12.3 5.5 53 4.6 SSE 9 15 5 8 1011.0 1010.4 0.0
04/04:00am 15.4 12.9 4.8 49 5.0 SSE 7 9 4 5 1010.9 1010.3 0.0
04/03:30am 15.7 12.8 4.7 48 5.2 SE 9 13 5 7 1010.6 1010.0 0.0
04/03:00am 17.1 13.5 4.8 44 5.9 SE 13 19 7 10 1010.9 1010.3 0.0
04/02:30am 15.6 12.8 5.2 50 5.0 SSE 9 13 5 7 1011.2 1010.6 0.0
04/02:00am 16.8 13.7 5.7 48 5.4 SE 11 15 6 8 1011.4 1010.8 0.0
04/01:30am 16.8 14.2 6.0 49 5.3 SSE 9 13 5 7 1011.6 1011.0 0.0
04/01:00am 17.0 14.4 6.2 49 5.3 SSE 9 13 5 7 1011.9 1011.2 0.0
04/12:30am 17.2 12.8 6.4 49 5.4 SSE 19 22 10 12 1012.1 1011.4 0.0
04/12:00am 17.6 13.6 6.5 48 5.5 SSE 17 20 9 11 1012.4 1011.7 0.0
 
Date/Time
EDT
Temp
°C
App
Temp
°C
Dew
Point
°C
Rel
Hum
%
Delta-T
°C
Wind Press
QNH
hPa
Press
MSL
hPa
Rain since
9am
mm
Dir  Spd
km/h
Gust
km/h
Spd
kts
Gust
kts
03/11:30pm 18.1 14.2 5.3 43 6.3 SSE 15 19 8 10 1012.7 1012.0 0.0
03/11:00pm 18.8 14.1 3.4 36 7.3 SSE 17 20 9 11 1012.8 1012.1 0.0
03/10:30pm 18.6 14.4 4.0 38 7.0 SSE 15 20 8 11 1012.8 1012.1 0.0
03/10:00pm 18.4 15.9 3.8 38 6.9 S 6 11 3 6 1012.8 1012.1 0.0
03/09:30pm 19.3 18.0 4.3 37 7.3 CALM 0 0 0 0 1012.6 1011.9 0.0
03/09:00pm 21.3 20.1 4.8 34 8.2 CALM 0 0 0 0 1012.5 1011.8 0.0
03/08:30pm 25.7 23.0 0.4 19 11.9 WSW 4 7 2 4 1012.4 1011.7 0.0
03/08:00pm 26.6 22.8 1.8 20 12.1 WSW 11 13 6 7 1012.2 1011.5 0.0
03/07:30pm 28.8 25.2 0.5 16 13.6 WSW 9 13 5 7 1011.7 1011.1 0.0

Other Formats:

Comma delimited format used in spreadsheet applications
http://www.bom.gov.au/fwo/IDV60801/IDV60801.94855.axf

JavaScript Object Notation format (JSON) in row-major order
http://www.bom.gov.au/fwo/IDV60801/IDV60801.94855.json